sensor_id;sensor_type;location;lat;lon;timestamp;pressure;altitude;pressure_sealevel;temperature;humidity
26531;BME280;14201;43.188;24.160;2023-06-10T00:00:42;99144.47;;;19.62;72.00
26531;BME280;14201;43.188;24.160;2023-06-10T00:03:09;99136.53;;;19.59;71.80
26531;BME280;14201;43.188;24.160;2023-06-10T00:05:35;99128.69;;;19.32;73.02
26531;BME280;14201;43.188;24.160;2023-06-10T00:08:01;99133.97;;;19.21;73.76
26531;BME280;14201;43.188;24.160;2023-06-10T00:10:36;99140.13;;;19.23;73.87
26531;BME280;14201;43.188;24.160;2023-06-10T00:13:03;99137.47;;;19.26;73.36
26531;BME280;14201;43.188;24.160;2023-06-10T00:15:29;99137.50;;;19.21;73.73
26531;BME280;14201;43.188;24.160;2023-06-10T00:17:55;99132.22;;;19.37;72.68
26531;BME280;14201;43.188;24.160;2023-06-10T00:20:21;99132.19;;;19.43;72.37
26531;BME280;14201;43.188;24.160;2023-06-10T00:22:50;99130.41;;;19.45;72.65
26531;BME280;14201;43.188;24.160;2023-06-10T00:25:16;99136.56;;;19.45;72.46
26531;BME280;14201;43.188;24.160;2023-06-10T00:27:42;99134.78;;;19.52;72.13
26531;BME280;14201;43.188;24.160;2023-06-10T00:30:08;99137.41;;;19.61;71.73
26531;BME280;14201;43.188;24.160;2023-06-10T00:32:35;99136.53;;;19.59;71.67
26531;BME280;14201;43.188;24.160;2023-06-10T00:35:01;99140.03;;;19.67;71.46
26531;BME280;14201;43.188;24.160;2023-06-10T00:37:28;99138.28;;;19.68;71.85
26531;BME280;14201;43.188;24.160;2023-06-10T00:39:54;99135.63;;;19.70;71.55
26531;BME280;14201;43.188;24.160;2023-06-10T00:42:20;99133.09;;;19.30;72.54
26531;BME280;14201;43.188;24.160;2023-06-10T00:44:47;99132.19;;;19.40;71.87
26531;BME280;14201;43.188;24.160;2023-06-10T00:47:13;99135.72;;;19.36;72.49
26531;BME280;14201;43.188;24.160;2023-06-10T00:49:39;99133.97;;;19.18;73.17
26531;BME280;14201;43.188;24.160;2023-06-10T00:52:06;99142.78;;;19.12;73.73
26531;BME280;14201;43.188;24.160;2023-06-10T00:54:33;99139.28;;;19.04;73.77
26531;BME280;14201;43.188;24.160;2023-06-10T00:57:01;99145.28;;;18.32;76.96
26531;BME280;14201;43.188;24.160;2023-06-10T00:59:30;99145.19;;;18.06;79.73
26531;BME280;14201;43.188;24.160;2023-06-10T01:01:56;99136.09;;;17.51;82.86
26531;BME280;14201;43.188;24.160;2023-06-10T01:04:22;99142.22;;;17.43;84.83
26531;BME280;14201;43.188;24.160;2023-06-10T01:06:52;99143.84;;;17.27;86.08
26531;BME280;14201;43.188;24.160;2023-06-10T01:12:21;99146.66;;;17.53;85.29
26531;BME280;14201;43.188;24.160;2023-06-10T01:14:50;99145.00;;;17.70;84.40
26531;BME280;14201;43.188;24.160;2023-06-10T01:17:16;99147.66;;;17.72;83.93
26531;BME280;14201;43.188;24.160;2023-06-10T01:19:44;99141.34;;;17.47;85.09
26531;BME280;14201;43.188;24.160;2023-06-10T01:22:09;99141.44;;;17.61;84.45
26531;BME280;14201;43.188;24.160;2023-06-10T01:24:37;99153.69;;;17.56;84.43
26531;BME280;14201;43.188;24.160;2023-06-10T01:27:09;99152.59;;;17.24;85.76
26531;BME280;14201;43.188;24.160;2023-06-10T01:29:52;99148.19;;;17.22;86.42
26531;BME280;14201;43.188;24.160;2023-06-10T01:32:32;99148.16;;;17.17;86.65
26531;BME280;14201;43.188;24.160;2023-06-10T01:35:00;99146.34;;;17.08;86.93
26531;BME280;14201;43.188;24.160;2023-06-10T01:37:27;99145.47;;;17.11;86.72
26531;BME280;14201;43.188;24.160;2023-06-10T01:39:57;99142.78;;;17.03;87.29
26531;BME280;14201;43.188;24.160;2023-06-10T01:42:25;99149.00;;;17.13;86.45
26531;BME280;14201;43.188;24.160;2023-06-10T01:44:51;99150.75;;;17.11;86.79
26531;BME280;14201;43.188;24.160;2023-06-10T01:47:17;99152.53;;;17.17;86.43
26531;BME280;14201;43.188;24.160;2023-06-10T01:49:43;99155.91;;;17.02;87.74
26531;BME280;14201;43.188;24.160;2023-06-10T01:52:08;99157.78;;;17.15;87.12
26531;BME280;14201;43.188;24.160;2023-06-10T01:54:34;99154.31;;;17.16;87.41
26531;BME280;14201;43.188;24.160;2023-06-10T01:57:01;99164.00;;;17.22;86.59
26531;BME280;14201;43.188;24.160;2023-06-10T01:59:26;99149.94;;;17.18;86.00
26531;BME280;14201;43.188;24.160;2023-06-10T02:01:52;99165.94;;;17.47;84.96
26531;BME280;14201;43.188;24.160;2023-06-10T02:04:18;99160.63;;;17.44;84.87
26531;BME280;14201;43.188;24.160;2023-06-10T02:06:44;99167.63;;;17.39;84.83
26531;BME280;14201;43.188;24.160;2023-06-10T02:09:10;99161.47;;;17.37;85.45
26531;BME280;14201;43.188;24.160;2023-06-10T02:11:35;99172.00;;;17.39;85.17
26531;BME280;14201;43.188;24.160;2023-06-10T02:14:01;99169.38;;;17.40;85.91
26531;BME280;14201;43.188;24.160;2023-06-10T02:16:27;99168.63;;;17.60;84.45
26531;BME280;14201;43.188;24.160;2023-06-10T02:18:52;99160.78;;;17.67;84.08
26531;BME280;14201;43.188;24.160;2023-06-10T02:21:18;99161.72;;;17.80;83.22
26531;BME280;14201;43.188;24.160;2023-06-10T02:23:44;99166.13;;;17.78;83.00
26531;BME280;14201;43.188;24.160;2023-06-10T02:26:09;99153.00;;;17.89;82.98
26531;BME280;14201;43.188;24.160;2023-06-10T02:28:35;99155.69;;;17.94;83.54
26531;BME280;14201;43.188;24.160;2023-06-10T02:31:01;99159.22;;;17.99;83.39
26531;BME280;14201;43.188;24.160;2023-06-10T02:33:26;99145.16;;;18.03;82.63
26531;BME280;14201;43.188;24.160;2023-06-10T02:35:52;99137.25;;;17.94;82.70
26531;BME280;14201;43.188;24.160;2023-06-10T02:38:18;99145.16;;;17.98;84.05
26531;BME280;14201;43.188;24.160;2023-06-10T02:40:43;99149.53;;;17.90;84.05
26531;BME280;14201;43.188;24.160;2023-06-10T02:43:09;99144.22;;;17.84;84.53
26531;BME280;14201;43.188;24.160;2023-06-10T02:45:35;99158.22;;;17.80;84.06
26531;BME280;14201;43.188;24.160;2023-06-10T02:48:00;99149.56;;;17.99;83.98
26531;BME280;14201;43.188;24.160;2023-06-10T02:50:26;99157.38;;;17.85;83.74
26531;BME280;14201;43.188;24.160;2023-06-10T02:52:51;99155.53;;;17.74;84.38
26531;BME280;14201;43.188;24.160;2023-06-10T02:55:17;99150.19;;;17.55;86.27
26531;BME280;14201;43.188;24.160;2023-06-10T02:57:43;99152.81;;;17.58;85.55
26531;BME280;14201;43.188;24.160;2023-06-10T03:00:08;99142.19;;;17.41;86.97
26531;BME280;14201;43.188;24.160;2023-06-10T03:02:37;99145.53;;;17.19;88.31
26531;BME280;14201;43.188;24.160;2023-06-10T03:05:04;99150.97;;;17.42;89.03
26531;BME280;14201;43.188;24.160;2023-06-10T03:07:30;99150.75;;;17.11;90.32
26531;BME280;14201;43.188;24.160;2023-06-10T03:09:56;99157.78;;;17.12;90.48
26531;BME280;14201;43.188;24.160;2023-06-10T03:12:22;99161.34;;;17.23;89.98
26531;BME280;14201;43.188;24.160;2023-06-10T03:14:48;99171.81;;;17.12;90.65
26531;BME280;14201;43.188;24.160;2023-06-10T03:17:13;99173.50;;;17.07;91.33
26531;BME280;14201;43.188;24.160;2023-06-10T03:19:39;99164.81;;;17.16;91.60
26531;BME280;14201;43.188;24.160;2023-06-10T03:22:12;99171.09;;;17.37;89.88
26531;BME280;14201;43.188;24.160;2023-06-10T03:24:38;99164.97;;;17.41;89.01
26531;BME280;14201;43.188;24.160;2023-06-10T03:27:11;99169.44;;;17.48;89.35
26531;BME280;14201;43.188;24.160;2023-06-10T03:29:38;99167.78;;;17.62;89.43
26531;BME280;14201;43.188;24.160;2023-06-10T03:32:05;99176.59;;;17.70;88.29
26531;BME280;14201;43.188;24.160;2023-06-10T03:34:31;99174.91;;;17.79;88.92
26531;BME280;14201;43.188;24.160;2023-06-10T03:36:57;99175.00;;;17.94;88.61
26531;BME280;14201;43.188;24.160;2023-06-10T03:39:23;99169.75;;;18.00;88.17
26531;BME280;14201;43.188;24.160;2023-06-10T03:41:49;99173.31;;;18.07;87.89
26531;BME280;14201;43.188;24.160;2023-06-10T03:44:15;99177.75;;;18.13;87.21
26531;BME280;14201;43.188;24.160;2023-06-10T03:46:41;99170.69;;;18.12;86.53
26531;BME280;14201;43.188;24.160;2023-06-10T03:49:07;99164.50;;;18.00;87.53
26531;BME280;14201;43.188;24.160;2023-06-10T03:51:32;99159.22;;;17.97;88.46
26531;BME280;14201;43.188;24.160;2023-06-10T03:53:58;99175.06;;;18.03;89.04
26531;BME280;14201;43.188;24.160;2023-06-10T03:56:24;99168.88;;;18.00;89.89
26531;BME280;14201;43.188;24.160;2023-06-10T03:58:50;99171.41;;;17.83;90.94
26531;BME280;14201;43.188;24.160;2023-06-10T04:01:16;99153.03;;;17.86;92.06
26531;BME280;14201;43.188;24.160;2023-06-10T04:03:43;99156.56;;;17.96;92.74
26531;BME280;14201;43.188;24.160;2023-06-10T04:06:09;99157.47;;;18.02;92.55
26531;BME280;14201;43.188;24.160;2023-06-10T04:08:35;99151.38;;;18.13;91.71
26531;BME280;14201;43.188;24.160;2023-06-10T04:11:01;99161.94;;;18.20;91.21
26531;BME280;14201;43.188;24.160;2023-06-10T04:13:27;99169.03;;;18.32;88.99
26531;BME280;14201;43.188;24.160;2023-06-10T04:15:53;99177.81;;;18.36;89.33
26531;BME280;14201;43.188;24.160;2023-06-10T04:18:20;99175.09;;;18.13;90.76
26531;BME280;14201;43.188;24.160;2023-06-10T04:20:47;99182.03;;;17.97;92.56
26531;BME280;14201;43.188;24.160;2023-06-10T04:23:13;99181.00;;;17.71;95.08
26531;BME280;14201;43.188;24.160;2023-06-10T04:25:38;99169.69;;;17.86;94.25
26531;BME280;14201;43.188;24.160;2023-06-10T04:28:04;99168.88;;;18.00;93.35
26531;BME280;14201;43.188;24.160;2023-06-10T04:30:29;99170.69;;;18.05;92.88
26531;BME280;14201;43.188;24.160;2023-06-10T04:32:57;99160.06;;;17.95;93.06
26531;BME280;14201;43.188;24.160;2023-06-10T04:35:22;99165.34;;;17.96;93.56
26531;BME280;14201;43.188;24.160;2023-06-10T04:37:48;99165.34;;;17.96;93.95
26531;BME280;14201;43.188;24.160;2023-06-10T04:40:14;99162.66;;;17.85;95.81
26531;BME280;14201;43.188;24.160;2023-06-10T04:42:41;99173.28;;;17.99;95.47
26531;BME280;14201;43.188;24.160;2023-06-10T04:45:07;99173.34;;;18.16;95.84
26531;BME280;14201;43.188;24.160;2023-06-10T04:47:33;99178.66;;;18.25;96.51
26531;BME280;14201;43.188;24.160;2023-06-10T04:50:00;99185.72;;;18.37;96.54
26531;BME280;14201;43.188;24.160;2023-06-10T04:52:26;99186.63;;;18.45;97.21
26531;BME280;14201;43.188;24.160;2023-06-10T04:54:52;99183.13;;;18.59;97.51
26531;BME280;14201;43.188;24.160;2023-06-10T04:57:19;99188.47;;;18.76;98.58
26531;BME280;14201;43.188;24.160;2023-06-10T04:59:46;99181.47;;;18.92;98.23
26531;BME280;14201;43.188;24.160;2023-06-10T05:02:11;99182.34;;;19.07;91.77
26531;BME280;14201;43.188;24.160;2023-06-10T05:04:37;99168.31;;;19.18;89.55
26531;BME280;14201;43.188;24.160;2023-06-10T05:07:03;99182.38;;;19.35;89.92
26531;BME280;14201;43.188;24.160;2023-06-10T05:09:29;99182.38;;;19.51;90.17
26531;BME280;14201;43.188;24.160;2023-06-10T05:11:55;99184.97;;;19.61;92.29
26531;BME280;14201;43.188;24.160;2023-06-10T05:14:21;99180.56;;;19.63;92.65
26531;BME280;14201;43.188;24.160;2023-06-10T05:16:47;99199.06;;;19.79;89.99
26531;BME280;14201;43.188;24.160;2023-06-10T05:19:13;99193.81;;;19.73;89.49
26531;BME280;14201;43.188;24.160;2023-06-10T05:21:39;99191.13;;;19.80;90.24
26531;BME280;14201;43.188;24.160;2023-06-10T05:24:05;99192.88;;;19.83;88.89
26531;BME280;14201;43.188;24.160;2023-06-10T05:26:31;99191.13;;;19.86;88.86
26531;BME280;14201;43.188;24.160;2023-06-10T05:28:58;99190.22;;;19.95;87.52
26531;BME280;14201;43.188;24.160;2023-06-10T05:31:24;99186.66;;;20.05;88.20
26531;BME280;14201;43.188;24.160;2023-06-10T05:33:49;99188.38;;;20.16;86.68
26531;BME280;14201;43.188;24.160;2023-06-10T05:36:15;99190.13;;;20.20;88.87
26531;BME280;14201;43.188;24.160;2023-06-10T05:38:41;99184.84;;;20.26;89.21
26531;BME280;14201;43.188;24.160;2023-06-10T05:41:06;99185.69;;;20.28;89.01
26531;BME280;14201;43.188;24.160;2023-06-10T05:43:32;99190.94;;;20.39;87.78
26531;BME280;14201;43.188;24.160;2023-06-10T05:45:58;99188.28;;;20.37;88.71
26531;BME280;14201;43.188;24.160;2023-06-10T05:48:23;99195.28;;;20.52;87.46
26531;BME280;14201;43.188;24.160;2023-06-10T05:50:49;99187.31;;;20.60;87.92
26531;BME280;14201;43.188;24.160;2023-06-10T05:53:15;99198.78;;;20.65;89.07
26531;BME280;14201;43.188;24.160;2023-06-10T05:55:44;99197.03;;;20.61;91.31
26531;BME280;14201;43.188;24.160;2023-06-10T05:58:11;99189.06;;;20.56;88.85
26531;BME280;14201;43.188;24.160;2023-06-10T06:00:38;99196.03;;;20.80;90.23
26531;BME280;14201;43.188;24.160;2023-06-10T06:03:09;99198.59;;;20.93;88.90
26531;BME280;14201;43.188;24.160;2023-06-10T06:05:35;99196.75;;;21.06;86.57
26531;BME280;14201;43.188;24.160;2023-06-10T06:08:06;99202.97;;;20.95;88.82
26531;BME280;14201;43.188;24.160;2023-06-10T06:10:32;99209.03;;;21.14;85.27
26531;BME280;14201;43.188;24.160;2023-06-10T06:12:57;99201.88;;;21.22;85.18
26531;BME280;14201;43.188;24.160;2023-06-10T06:15:23;99194.78;;;21.31;86.42
26531;BME280;14201;43.188;24.160;2023-06-10T06:17:49;99195.53;;;21.42;84.38
26531;BME280;14201;43.188;24.160;2023-06-10T06:20:20;99193.78;;;21.46;86.33
26531;BME280;14201;43.188;24.160;2023-06-10T06:22:46;99191.06;;;21.53;86.38
26531;BME280;14201;43.188;24.160;2023-06-10T06:25:12;99182.97;;;21.69;85.89
26531;BME280;14201;43.188;24.160;2023-06-10T06:27:37;99185.28;;;21.96;83.26
26531;BME280;14201;43.188;24.160;2023-06-10T06:30:03;99185.25;;;22.02;80.65
26531;BME280;14201;43.188;24.160;2023-06-10T06:32:29;99180.75;;;22.06;79.47
26531;BME280;14201;43.188;24.160;2023-06-10T06:34:55;99185.94;;;22.18;78.87
26531;BME280;14201;43.188;24.160;2023-06-10T06:37:22;99179.44;;;22.44;80.12
26531;BME280;14201;43.188;24.160;2023-06-10T06:39:53;99185.22;;;22.74;78.62
26531;BME280;14201;43.188;24.160;2023-06-10T06:42:20;99184.22;;;22.83;76.04
26531;BME280;14201;43.188;24.160;2023-06-10T06:44:46;99177.84;;;22.94;75.95
26531;BME280;14201;43.188;24.160;2023-06-10T06:47:12;99169.84;;;22.96;75.39
26531;BME280;14201;43.188;24.160;2023-06-10T06:49:38;99160.13;;;22.93;74.17
26531;BME280;14201;43.188;24.160;2023-06-10T06:52:04;99173.19;;;23.10;74.38
26531;BME280;14201;43.188;24.160;2023-06-10T06:54:30;99176.25;;;23.40;72.41
26531;BME280;14201;43.188;24.160;2023-06-10T06:56:55;99178.84;;;23.42;78.46
26531;BME280;14201;43.188;24.160;2023-06-10T06:59:21;99179.66;;;23.47;75.08
26531;BME280;14201;43.188;24.160;2023-06-10T07:01:47;99177.88;;;23.47;76.40
26531;BME280;14201;43.188;24.160;2023-06-10T07:04:14;99169.16;;;23.41;78.43
26531;BME280;14201;43.188;24.160;2023-06-10T07:06:40;99168.56;;;23.22;79.56
26531;BME280;14201;43.188;24.160;2023-06-10T07:09:07;99161.44;;;23.25;79.32
26531;BME280;14201;43.188;24.160;2023-06-10T07:11:36;99170.00;;;23.43;76.10
26531;BME280;14201;43.188;24.160;2023-06-10T07:14:02;99166.22;;;23.56;76.84
26531;BME280;14201;43.188;24.160;2023-06-10T07:16:27;99165.94;;;23.70;74.70
26531;BME280;14201;43.188;24.160;2023-06-10T07:18:53;99163.47;;;23.61;75.50
26531;BME280;14201;43.188;24.160;2023-06-10T07:21:19;99167.63;;;23.75;76.69
26531;BME280;14201;43.188;24.160;2023-06-10T07:23:45;99170.41;;;23.68;71.33
26531;BME280;14201;43.188;24.160;2023-06-10T07:26:11;99175.53;;;23.80;73.35
26531;BME280;14201;43.188;24.160;2023-06-10T07:28:39;99164.53;;;23.52;69.43
26531;BME280;14201;43.188;24.160;2023-06-10T07:31:05;99163.63;;;23.51;69.62
26531;BME280;14201;43.188;24.160;2023-06-10T07:33:31;99162.75;;;23.51;69.47
26531;BME280;14201;43.188;24.160;2023-06-10T07:35:56;99168.28;;;23.88;69.71
26531;BME280;14201;43.188;24.160;2023-06-10T07:38:22;99161.44;;;23.75;70.21
26531;BME280;14201;43.188;24.160;2023-06-10T07:40:47;99168.19;;;23.94;67.67
26531;BME280;14201;43.188;24.160;2023-06-10T07:43:13;99163.06;;;23.82;63.75
26531;BME280;14201;43.188;24.160;2023-06-10T07:45:42;99167.81;;;24.11;65.11
26531;BME280;14201;43.188;24.160;2023-06-10T07:48:08;99165.97;;;24.15;64.81
26531;BME280;14201;43.188;24.160;2023-06-10T07:50:34;99169.00;;;24.40;65.83
26531;BME280;14201;43.188;24.160;2023-06-10T07:53:01;99162.97;;;24.72;65.03
26531;BME280;14201;43.188;24.160;2023-06-10T07:55:26;99159.03;;;24.89;64.98
26531;BME280;14201;43.188;24.160;2023-06-10T07:57:53;99173.47;;;25.16;65.30
26531;BME280;14201;43.188;24.160;2023-06-10T08:00:19;99171.28;;;25.33;63.03
26531;BME280;14201;43.188;24.160;2023-06-10T08:02:45;99173.66;;;25.46;61.52
26531;BME280;14201;43.188;24.160;2023-06-10T08:05:11;99169.00;;;25.54;61.33
26531;BME280;14201;43.188;24.160;2023-06-10T08:07:37;99176.09;;;25.18;62.87
26531;BME280;14201;43.188;24.160;2023-06-10T08:10:03;99171.28;;;25.33;65.20
26531;BME280;14201;43.188;24.160;2023-06-10T08:12:29;99172.44;;;25.59;65.65
26531;BME280;14201;43.188;24.160;2023-06-10T08:14:55;99164.16;;;25.68;63.70
26531;BME280;14201;43.188;24.160;2023-06-10T08:17:21;99174.59;;;25.78;64.40
26531;BME280;14201;43.188;24.160;2023-06-10T08:19:47;99172.53;;;25.87;64.27
26531;BME280;14201;43.188;24.160;2023-06-10T08:22:12;99173.16;;;25.99;64.02
26531;BME280;14201;43.188;24.160;2023-06-10T08:24:38;99172.91;;;26.08;62.61
26531;BME280;14201;43.188;24.160;2023-06-10T08:27:04;99162.84;;;26.16;63.07
26531;BME280;14201;43.188;24.160;2023-06-10T08:29:31;99163.06;;;25.76;62.17
26531;BME280;14201;43.188;24.160;2023-06-10T08:31:57;99170.84;;;25.85;61.32
26531;BME280;14201;43.188;24.160;2023-06-10T08:34:23;99162.63;;;25.60;63.18
26531;BME280;14201;43.188;24.160;2023-06-10T08:36:49;99178.09;;;25.45;63.05
26531;BME280;14201;43.188;24.160;2023-06-10T08:39:21;99181.06;;;24.97;63.20
26531;BME280;14201;43.188;24.160;2023-06-10T08:42:02;99174.28;;;25.20;61.57
26531;BME280;14201;43.188;24.160;2023-06-10T08:44:31;99173.41;;;25.55;61.71
26531;BME280;14201;43.188;24.160;2023-06-10T08:47:00;99166.97;;;25.29;61.51
26531;BME280;14201;43.188;24.160;2023-06-10T08:49:27;99169.56;;;25.67;61.77
26531;BME280;14201;43.188;24.160;2023-06-10T08:51:58;99172.53;;;25.87;59.70
26531;BME280;14201;43.188;24.160;2023-06-10T08:54:27;99161.66;;;26.26;60.26
26531;BME280;14201;43.188;24.160;2023-06-10T08:56:55;99168.75;;;26.57;62.57
26531;BME280;14201;43.188;24.160;2023-06-10T08:59:21;99160.44;;;26.68;57.42
26531;BME280;14201;43.188;24.160;2023-06-10T09:01:47;99164.41;;;26.83;56.03
26531;BME280;14201;43.188;24.160;2023-06-10T09:04:13;99159.09;;;27.09;58.52
26531;BME280;14201;43.188;24.160;2023-06-10T09:06:40;99159.13;;;27.36;57.13
26531;BME280;14201;43.188;24.160;2023-06-10T09:09:06;99149.44;;;27.59;54.91
26531;BME280;14201;43.188;24.160;2023-06-10T09:11:33;99152.16;;;27.82;55.04
26531;BME280;14201;43.188;24.160;2023-06-10T09:13:58;99148.78;;;28.02;55.34
26531;BME280;14201;43.188;24.160;2023-06-10T09:16:28;99146.44;;;28.17;55.63
26531;BME280;14201;43.188;24.160;2023-06-10T09:18:53;99140.00;;;28.46;52.94
26531;BME280;14201;43.188;24.160;2023-06-10T09:21:24;99139.00;;;28.48;53.68
26531;BME280;14201;43.188;24.160;2023-06-10T09:23:50;99139.78;;;28.74;52.35
26531;BME280;14201;43.188;24.160;2023-06-10T09:26:16;99134.63;;;28.70;52.35
26531;BME280;14201;43.188;24.160;2023-06-10T09:28:48;99133.78;;;28.44;52.57
26531;BME280;14201;43.188;24.160;2023-06-10T09:31:16;99137.13;;;28.51;50.32
26531;BME280;14201;43.188;24.160;2023-06-10T09:33:44;99138.59;;;29.03;50.41
26531;BME280;14201;43.188;24.160;2023-06-10T09:36:10;99127.88;;;29.25;47.70
26531;BME280;14201;43.188;24.160;2023-06-10T09:38:36;99124.13;;;29.71;47.25
26531;BME280;14201;43.188;24.160;2023-06-10T09:41:03;99126.81;;;30.10;49.43
26531;BME280;14201;43.188;24.160;2023-06-10T09:43:43;99119.81;;;29.46;45.88
26531;BME280;14201;43.188;24.160;2023-06-10T09:46:16;99121.00;;;28.96;47.12
26531;BME280;14201;43.188;24.160;2023-06-10T09:48:44;99120.97;;;29.40;51.07
26531;BME280;14201;43.188;24.160;2023-06-10T09:51:12;99117.63;;;29.35;48.43
26531;BME280;14201;43.188;24.160;2023-06-10T09:53:38;99117.06;;;29.27;46.65
26531;BME280;14201;43.188;24.160;2023-06-10T09:56:05;99117.13;;;29.03;44.09
26531;BME280;14201;43.188;24.160;2023-06-10T09:58:37;99113.53;;;29.04;41.14
26531;BME280;14201;43.188;24.160;2023-06-10T10:01:12;99111.97;;;29.62;45.56
26531;BME280;14201;43.188;24.160;2023-06-10T10:03:49;99087.41;;;29.92;40.32
26531;BME280;14201;43.188;24.160;2023-06-10T10:06:17;99110.50;;;29.75;40.83
26531;BME280;14201;43.188;24.160;2023-06-10T10:08:43;99108.16;;;29.04;41.40
26531;BME280;14201;43.188;24.160;2023-06-10T10:11:10;99110.22;;;29.20;41.64
26531;BME280;14201;43.188;24.160;2023-06-10T10:13:37;99105.19;;;29.12;40.75
26531;BME280;14201;43.188;24.160;2023-06-10T10:16:15;99095.69;;;29.25;41.36
26531;BME280;14201;43.188;24.160;2023-06-10T10:18:46;99091.81;;;29.11;42.11
26531;BME280;14201;43.188;24.160;2023-06-10T10:21:15;99082.66;;;29.16;40.96
26531;BME280;14201;43.188;24.160;2023-06-10T10:24:02;99092.03;;;29.27;38.81
26531;BME280;14201;43.188;24.160;2023-06-10T10:26:31;99086.06;;;29.61;39.29
26531;BME280;14201;43.188;24.160;2023-06-10T10:31:32;99077.50;;;29.72;39.89
26531;BME280;14201;43.188;24.160;2023-06-10T10:34:00;99069.16;;;29.79;38.40
26531;BME280;14201;43.188;24.160;2023-06-10T10:36:27;99066.88;;;30.29;38.33
26531;BME280;14201;43.188;24.160;2023-06-10T10:38:53;99068.97;;;30.41;38.00
26531;BME280;14201;43.188;24.160;2023-06-10T10:41:19;99057.94;;;30.09;37.60
26531;BME280;14201;43.188;24.160;2023-06-10T10:43:46;99062.47;;;30.26;36.97
26531;BME280;14201;43.188;24.160;2023-06-10T10:46:15;99057.78;;;30.50;37.92
26531;BME280;14201;43.188;24.160;2023-06-10T10:48:42;99042.97;;;30.22;42.29
26531;BME280;14201;43.188;24.160;2023-06-10T10:51:09;99054.66;;;30.02;39.56
26531;BME280;14201;43.188;24.160;2023-06-10T10:53:36;99055.50;;;30.03;38.32
26531;BME280;14201;43.188;24.160;2023-06-10T10:56:14;99049.56;;;29.96;39.60
26531;BME280;14201;43.188;24.160;2023-06-10T10:58:40;99050.66;;;30.11;38.91
26531;BME280;14201;43.188;24.160;2023-06-10T11:01:13;99047.03;;;30.12;38.55
26531;BME280;14201;43.188;24.160;2023-06-10T11:03:46;99047.03;;;30.12;37.00
26531;BME280;14201;43.188;24.160;2023-06-10T11:06:16;99048.47;;;30.57;34.98
26531;BME280;14201;43.188;24.160;2023-06-10T11:16:27;99033.44;;;30.90;37.73
26531;BME280;14201;43.188;24.160;2023-06-10T11:18:54;99031.03;;;31.36;37.78
26531;BME280;14201;43.188;24.160;2023-06-10T11:21:21;99029.22;;;31.70;36.14
26531;BME280;14201;43.188;24.160;2023-06-10T11:23:49;99028.50;;;31.15;36.64
26531;BME280;14201;43.188;24.160;2023-06-10T11:31:49;99016.03;;;30.97;35.81
26531;BME280;14201;43.188;24.160;2023-06-10T11:34:13;99009.09;;;30.18;33.76
26531;BME280;14201;43.188;24.160;2023-06-10T11:36:43;99015.25;;;30.58;33.88
26531;BME280;14201;43.188;24.160;2023-06-10T11:39:12;98996.94;;;31.01;35.06
26531;BME280;14201;43.188;24.160;2023-06-10T11:41:39;99015.28;;;31.46;35.24
26531;BME280;14201;43.188;24.160;2023-06-10T11:44:12;99006.56;;;31.23;35.91
26531;BME280;14201;43.188;24.160;2023-06-10T11:46:41;98995.28;;;31.16;34.98
26531;BME280;14201;43.188;24.160;2023-06-10T11:49:11;99001.34;;;30.68;35.26
26531;BME280;14201;43.188;24.160;2023-06-10T11:51:41;98999.88;;;30.43;38.69
26531;BME280;14201;43.188;24.160;2023-06-10T11:54:14;98992.75;;;30.96;34.36
26531;BME280;14201;43.188;24.160;2023-06-10T11:56:40;98994.91;;;31.40;34.72
26531;BME280;14201;43.188;24.160;2023-06-10T11:59:06;98996.25;;;31.82;33.45
26531;BME280;14201;43.188;24.160;2023-06-10T12:01:34;98998.00;;;31.99;33.24
26531;BME280;14201;43.188;24.160;2023-06-10T12:04:07;98987.06;;;31.02;32.56
26531;BME280;14201;43.188;24.160;2023-06-10T12:06:47;98992.25;;;30.88;33.50
26531;BME280;14201;43.188;24.160;2023-06-10T12:09:20;98995.53;;;31.12;33.30
26531;BME280;14201;43.188;24.160;2023-06-10T12:11:58;98990.00;;;31.31;33.71
26531;BME280;14201;43.188;24.160;2023-06-10T12:17:36;98986.66;;;31.27;34.25
26531;BME280;14201;43.188;24.160;2023-06-10T12:20:23;98976.19;;;30.86;35.52
26531;BME280;14201;43.188;24.160;2023-06-10T12:22:49;98979.84;;;30.68;35.14
26531;BME280;14201;43.188;24.160;2023-06-10T12:25:15;98980.53;;;30.54;33.83
26531;BME280;14201;43.188;24.160;2023-06-10T12:27:50;98981.66;;;30.85;32.90
26531;BME280;14201;43.188;24.160;2023-06-10T12:30:22;98981.66;;;30.67;33.78
26531;BME280;14201;43.188;24.160;2023-06-10T12:32:50;98976.19;;;30.69;34.60
26531;BME280;14201;43.188;24.160;2023-06-10T12:35:26;98975.25;;;31.22;35.80
26531;BME280;14201;43.188;24.160;2023-06-10T12:37:59;98978.66;;;31.59;35.53
26531;BME280;14201;43.188;24.160;2023-06-10T12:40:34;98972.88;;;31.16;34.55
26531;BME280;14201;43.188;24.160;2023-06-10T12:43:01;98970.41;;;30.59;35.63
26531;BME280;14201;43.188;24.160;2023-06-10T12:45:34;98961.72;;;30.54;36.80
26531;BME280;14201;43.188;24.160;2023-06-10T12:48:11;98962.44;;;30.40;36.97
26531;BME280;14201;43.188;24.160;2023-06-10T12:50:41;98963.13;;;30.61;36.28
26531;BME280;14201;43.188;24.160;2023-06-10T12:53:08;98961.34;;;30.61;36.10
26531;BME280;14201;43.188;24.160;2023-06-10T12:55:34;98956.56;;;30.49;36.25
26531;BME280;14201;43.188;24.160;2023-06-10T12:58:00;98954.59;;;30.70;35.84
26531;BME280;14201;43.188;24.160;2023-06-10T13:00:27;98956.13;;;30.93;35.71
26531;BME280;14201;43.188;24.160;2023-06-10T13:03:00;98950.66;;;31.12;37.11
26531;BME280;14201;43.188;24.160;2023-06-10T13:05:31;98952.22;;;31.16;37.27
26531;BME280;14201;43.188;24.160;2023-06-10T13:07:57;98948.38;;;31.05;37.26
26531;BME280;14201;43.188;24.160;2023-06-10T13:10:23;98939.03;;;30.77;37.63
26531;BME280;14201;43.188;24.160;2023-06-10T13:12:50;98935.31;;;30.26;36.91